createdAt,value
2023-02-19T00:02:07.541Z,38.00
2023-02-19T00:04:36.511Z,37.45
2023-02-19T00:07:05.406Z,37.05
2023-02-19T00:09:34.280Z,37.95
2023-02-19T00:12:03.828Z,41.38
2023-02-19T00:14:32.750Z,39.05
2023-02-19T00:17:01.642Z,36.78
2023-02-19T00:19:30.917Z,41.45
2023-02-19T00:21:59.938Z,39.38
2023-02-19T00:24:28.846Z,31.65
2023-02-19T00:26:57.704Z,31.08
2023-02-19T00:29:26.740Z,31.08
2023-02-19T00:31:55.797Z,29.92
2023-02-19T00:34:24.796Z,32.35
2023-02-19T00:36:53.711Z,31.27
2023-02-19T00:39:22.653Z,33.10
2023-02-19T00:41:51.774Z,35.75
2023-02-19T00:44:20.866Z,33.08
2023-02-19T00:46:50.190Z,34.03
2023-02-19T00:49:25.485Z,34.65
2023-02-19T00:51:55.084Z,36.15
2023-02-19T00:54:24.238Z,35.80
2023-02-19T00:56:53.653Z,35.20
2023-02-19T00:59:22.550Z,34.60
2023-02-19T01:01:51.516Z,32.45
2023-02-19T01:04:20.666Z,30.85
2023-02-19T01:06:50.089Z,28.20
2023-02-19T01:09:19.201Z,23.85
2023-02-19T01:11:48.488Z,22.63
2023-02-19T01:14:17.552Z,19.55
2023-02-19T01:16:46.501Z,21.60
2023-02-19T01:19:15.774Z,21.52
2023-02-19T01:21:44.881Z,20.08
2023-02-19T01:24:13.780Z,19.83
2023-02-19T01:26:42.773Z,19.60
2023-02-19T01:29:12.174Z,20.67
2023-02-19T01:31:46.064Z,20.48
2023-02-19T01:34:15.058Z,20.42
2023-02-19T01:36:44.144Z,19.23
2023-02-19T01:39:13.462Z,20.40
2023-02-19T01:41:43.600Z,21.35
2023-02-19T01:44:19.587Z,20.27
2023-02-19T01:46:49.634Z,19.58
2023-02-19T01:49:28.452Z,18.55
2023-02-19T01:52:00.453Z,17.83
2023-02-19T01:54:33.878Z,17.95
2023-02-19T01:57:06.139Z,16.10
2023-02-19T01:59:35.809Z,17.05
2023-02-19T02:02:04.811Z,15.20
2023-02-19T02:04:35.391Z,14.80
2023-02-19T02:07:29.315Z,14.27
2023-02-19T02:10:16.784Z,14.13
2023-02-19T02:12:45.704Z,14.95
2023-02-19T02:15:15.261Z,14.18
2023-02-19T02:18:08.177Z,16.10
2023-02-19T02:20:46.039Z,14.27
2023-02-19T02:23:27.676Z,14.88
2023-02-19T02:26:32.002Z,14.32
2023-02-19T02:29:25.851Z,14.55
2023-02-19T02:32:27.941Z,14.57
2023-02-19T02:35:07.100Z,14.18
2023-02-19T02:37:40.125Z,13.23
2023-02-19T02:40:11.580Z,14.13
2023-02-19T02:42:41.606Z,16.02
2023-02-19T02:45:37.639Z,13.20
2023-02-19T02:48:43.907Z,13.73
2023-02-19T02:51:23.187Z,14.18
2023-02-19T02:54:30.945Z,14.13
2023-02-19T02:57:01.137Z,15.30
2023-02-19T02:59:37.211Z,15.30
2023-02-19T03:02:28.198Z,15.38
2023-02-19T03:05:39.069Z,15.13
2023-02-19T03:08:25.409Z,15.05
2023-02-19T03:11:25.136Z,15.98
2023-02-19T03:14:37.734Z,15.27
2023-02-19T03:17:53.341Z,16.58
2023-02-19T03:20:25.019Z,15.23
2023-02-19T03:22:57.294Z,16.67
2023-02-19T03:25:47.553Z,17.33
2023-02-19T03:28:20.127Z,17.23
2023-02-19T03:30:55.346Z,17.92
2023-02-19T03:33:28.622Z,16.67
2023-02-19T03:36:08.007Z,17.70
2023-02-19T03:38:49.640Z,15.40
2023-02-19T03:41:52.262Z,17.58
2023-02-19T03:44:31.873Z,16.83
2023-02-19T03:47:10.009Z,14.70
2023-02-19T03:49:51.064Z,14.98
2023-02-19T03:52:33.811Z,14.90
2023-02-19T03:55:29.383Z,15.43
2023-02-19T03:58:11.726Z,16.55
2023-02-19T04:00:58.774Z,15.38
2023-02-19T04:03:48.566Z,14.60
2023-02-19T04:06:23.815Z,15.25
2023-02-19T04:08:57.633Z,15.90
2023-02-19T04:11:29.021Z,15.15
2023-02-19T04:14:34.230Z,16.95
2023-02-19T04:17:15.360Z,15.00
2023-02-19T04:19:44.961Z,14.20
2023-02-19T04:22:14.653Z,13.95
2023-02-19T04:24:50.261Z,13.90
2023-02-19T04:27:19.604Z,12.60
2023-02-19T04:29:48.500Z,14.13
2023-02-19T04:32:17.525Z,15.02
2023-02-19T04:34:46.424Z,16.02
2023-02-19T04:37:15.793Z,18.58
2023-02-19T04:39:44.735Z,12.70
2023-02-19T04:42:13.633Z,12.38
2023-02-19T04:44:42.578Z,12.93
2023-02-19T04:47:11.840Z,13.70
2023-02-19T04:49:40.734Z,15.70
2023-02-19T04:52:09.631Z,14.80
2023-02-19T04:54:38.536Z,13.05
2023-02-19T04:57:07.473Z,12.85
2023-02-19T04:59:36.587Z,13.35
2023-02-19T05:02:05.514Z,12.75
2023-02-19T05:04:34.575Z,12.63
2023-02-19T05:07:03.509Z,15.50
2023-02-19T05:09:32.552Z,12.77
2023-02-19T05:12:01.757Z,12.95
2023-02-19T05:14:30.785Z,14.02
2023-02-19T05:16:59.790Z,16.27
2023-02-19T05:19:28.739Z,16.08
2023-02-19T05:21:57.634Z,17.23
2023-02-19T05:24:27.957Z,16.45
2023-02-19T05:26:57.200Z,14.88
2023-02-19T05:29:26.108Z,12.77
2023-02-19T05:31:55.128Z,13.77
2023-02-19T05:34:24.173Z,12.45
2023-02-19T05:36:53.147Z,12.45
2023-02-19T05:39:22.109Z,12.38
2023-02-19T05:41:51.028Z,13.38
2023-02-19T05:44:19.932Z,13.30
2023-02-19T05:46:48.949Z,13.35
2023-02-19T05:49:17.926Z,12.35
2023-02-19T05:51:47.045Z,12.48
2023-02-19T05:54:15.908Z,12.43
2023-02-19T05:56:45.102Z,12.60
2023-02-19T05:59:22.688Z,13.25
2023-02-19T06:01:53.738Z,12.63
2023-02-19T06:04:22.724Z,15.55
2023-02-19T06:06:52.222Z,14.18
2023-02-19T06:09:21.123Z,13.88
2023-02-19T06:11:50.036Z,14.65
2023-02-19T06:14:19.244Z,15.77
2023-02-19T06:16:48.173Z,15.77
2023-02-19T06:19:17.163Z,11.85
2023-02-19T06:21:46.028Z,11.85
2023-02-19T06:24:14.942Z,12.13
2023-02-19T06:26:43.909Z,11.98
2023-02-19T06:29:12.795Z,12.13
2023-02-19T06:31:41.850Z,12.25
2023-02-19T06:34:15.678Z,11.15
2023-02-19T06:36:45.673Z,11.52
2023-02-19T06:39:14.559Z,11.85
2023-02-19T06:41:43.605Z,11.65
2023-02-19T06:44:12.782Z,11.90
2023-02-19T06:46:41.781Z,12.25
2023-02-19T06:49:10.863Z,12.27
2023-02-19T06:51:39.787Z,11.95
2023-02-19T06:54:08.837Z,10.93
2023-02-19T06:56:40.720Z,11.73
2023-02-19T06:59:15.154Z,10.63
2023-02-19T07:01:44.462Z,13.02
2023-02-19T07:04:14.067Z,11.95
2023-02-19T07:06:43.040Z,13.15
2023-02-19T07:09:12.492Z,12.95
2023-02-19T07:11:42.037Z,11.15
2023-02-19T07:14:16.543Z,13.02
2023-02-19T07:16:48.392Z,10.65
2023-02-19T07:19:17.659Z,13.68
2023-02-19T07:21:46.579Z,12.50
2023-02-19T07:24:15.704Z,11.05
2023-02-19T07:26:44.586Z,11.77
2023-02-19T07:29:13.516Z,12.23
2023-02-19T07:31:42.589Z,10.52
2023-02-19T07:34:11.496Z,10.27
2023-02-19T07:36:40.457Z,10.05
2023-02-19T07:39:10.235Z,12.23
2023-02-19T07:41:39.181Z,10.55
2023-02-19T07:44:08.235Z,10.52
2023-02-19T07:46:37.147Z,10.15
2023-02-19T07:49:08.459Z,10.45
2023-02-19T07:51:37.490Z,11.02
2023-02-19T07:54:06.488Z,10.50
2023-02-19T07:56:35.421Z,10.00
2023-02-19T07:59:04.332Z,9.98
2023-02-19T08:01:51.594Z,10.80
2023-02-19T08:04:20.490Z,9.85
2023-02-19T08:06:49.538Z,10.35
2023-02-19T08:09:18.470Z,10.38
2023-02-19T08:12:05.755Z,10.32
2023-02-19T08:14:34.962Z,10.02
2023-02-19T08:17:04.491Z,9.27
2023-02-19T08:19:33.429Z,8.82
2023-02-19T08:22:02.406Z,10.00
2023-02-19T08:24:32.571Z,9.75
2023-02-19T08:27:01.557Z,9.85
2023-02-19T08:29:30.448Z,9.98
2023-02-19T08:31:59.402Z,8.73
2023-02-19T08:34:28.340Z,9.45
2023-02-19T08:36:57.280Z,9.25
2023-02-19T08:39:26.219Z,9.82
2023-02-19T08:41:55.164Z,9.85
2023-02-19T08:44:24.306Z,9.70
2023-02-19T08:46:53.897Z,8.93
2023-02-19T08:49:22.865Z,9.57
2023-02-19T08:51:51.911Z,9.93
2023-02-19T08:54:20.819Z,9.60
2023-02-19T08:56:49.743Z,9.18
2023-02-19T08:59:20.312Z,9.02
2023-02-19T09:01:49.410Z,9.77
2023-02-19T09:04:18.360Z,9.27
2023-02-19T09:06:47.297Z,9.18
2023-02-19T09:09:16.269Z,9.40
2023-02-19T09:11:45.667Z,9.05
2023-02-19T09:14:15.416Z,9.88
2023-02-19T09:16:44.846Z,9.50
2023-02-19T09:19:13.952Z,10.85
2023-02-19T09:21:44.301Z,9.30
2023-02-19T09:24:13.157Z,9.13
2023-02-19T09:26:42.076Z,9.20
2023-02-19T09:29:11.260Z,9.65
2023-02-19T09:31:40.205Z,9.25
2023-02-19T09:34:09.700Z,8.80
2023-02-19T09:36:39.082Z,8.55
2023-02-19T09:39:09.820Z,8.70
2023-02-19T09:41:48.001Z,9.15
2023-02-19T09:44:37.568Z,12.82
2023-02-19T09:47:17.716Z,9.77
2023-02-19T09:49:53.267Z,11.05
2023-02-19T09:53:01.221Z,11.07
2023-02-19T09:55:33.153Z,10.25
2023-02-19T09:58:05.123Z,10.52
2023-02-19T10:00:37.581Z,10.70
2023-02-19T10:03:23.140Z,11.30
2023-02-19T10:05:52.148Z,10.63
2023-02-19T10:08:22.984Z,9.38
2023-02-19T10:10:52.458Z,9.30
2023-02-19T10:13:24.260Z,11.93
2023-02-19T10:15:58.662Z,10.80
2023-02-19T10:18:30.623Z,11.25
2023-02-19T10:20:59.821Z,10.40
2023-02-19T10:23:29.153Z,9.63
2023-02-19T10:26:00.421Z,10.07
2023-02-19T10:28:32.274Z,10.05
2023-02-19T10:31:07.205Z,10.02
2023-02-19T10:33:48.910Z,9.30
2023-02-19T10:36:33.108Z,9.82
2023-02-19T10:39:27.851Z,9.57
2023-02-19T10:41:56.896Z,9.50
2023-02-19T10:44:34.211Z,8.77
2023-02-19T10:47:06.193Z,8.52
2023-02-19T10:49:40.145Z,9.25
2023-02-19T10:52:33.055Z,9.07
2023-02-19T10:55:21.993Z,9.00
2023-02-19T10:57:54.600Z,7.43
2023-02-19T11:00:28.100Z,8.15
2023-02-19T11:03:15.963Z,7.28
2023-02-19T11:06:07.702Z,7.57
2023-02-19T11:08:50.897Z,7.15
2023-02-19T11:11:40.710Z,7.67
2023-02-19T11:14:25.326Z,7.22
2023-02-19T11:16:59.609Z,7.15
2023-02-19T11:19:28.546Z,7.63
2023-02-19T11:21:58.736Z,7.00
2023-02-19T11:24:41.666Z,8.13
2023-02-19T11:27:26.091Z,8.10
2023-02-19T11:29:55.166Z,7.70
2023-02-19T11:32:31.972Z,9.57
2023-02-19T11:35:27.267Z,8.50
2023-02-19T11:38:03.642Z,11.95
2023-02-19T11:40:50.636Z,10.15
2023-02-19T11:43:41.088Z,9.35
2023-02-19T11:46:32.730Z,9.55
2023-02-19T11:49:05.489Z,8.55
2023-02-19T11:52:01.323Z,7.50
2023-02-19T11:54:36.667Z,7.35
2023-02-19T11:57:23.668Z,6.80
2023-02-19T12:00:14.141Z,6.70
2023-02-19T12:03:18.221Z,7.10
2023-02-19T12:06:14.838Z,7.05
2023-02-19T12:09:04.114Z,7.03
2023-02-19T12:11:58.933Z,6.97
2023-02-19T12:14:44.427Z,6.78
2023-02-19T12:17:43.921Z,6.93
2023-02-19T12:20:49.436Z,6.88
2023-02-19T12:23:51.904Z,6.40
2023-02-19T12:26:24.384Z,6.97
2023-02-19T12:28:59.378Z,6.53
2023-02-19T12:31:58.939Z,6.25
2023-02-19T12:34:45.901Z,7.38
2023-02-19T12:37:33.043Z,6.55
2023-02-19T12:40:29.160Z,6.97
2023-02-19T12:43:19.168Z,7.22
2023-02-19T12:46:06.350Z,7.40
2023-02-19T12:48:54.061Z,6.63
2023-02-19T12:51:27.233Z,7.35
2023-02-19T12:54:14.379Z,7.70
2023-02-19T12:56:52.058Z,6.68
2023-02-19T12:59:40.548Z,6.88
2023-02-19T13:02:16.663Z,7.72
2023-02-19T13:05:06.345Z,7.07
2023-02-19T13:07:39.330Z,7.90
2023-02-19T13:10:43.109Z,7.53
2023-02-19T13:13:31.501Z,7.05
2023-02-19T13:16:16.151Z,6.82
2023-02-19T13:19:00.070Z,6.63
2023-02-19T13:21:52.758Z,6.50
2023-02-19T13:24:29.174Z,7.00
2023-02-19T13:27:29.629Z,7.45
2023-02-19T13:30:29.197Z,6.30
2023-02-19T13:33:22.817Z,6.90
2023-02-19T13:36:13.866Z,9.05
2023-02-19T13:38:46.568Z,10.68
2023-02-19T13:41:40.812Z,6.45
2023-02-19T13:44:21.910Z,7.72
2023-02-19T13:46:52.828Z,6.53
2023-02-19T13:49:30.744Z,6.95
2023-02-19T13:52:23.685Z,6.38
2023-02-19T13:54:52.628Z,6.65
2023-02-19T13:57:30.634Z,6.57
2023-02-19T14:00:01.210Z,7.28
2023-02-19T14:02:32.951Z,7.47
2023-02-19T14:05:13.260Z,6.88
2023-02-19T14:07:57.252Z,7.07
2023-02-19T14:10:50.480Z,7.97
2023-02-19T14:13:51.948Z,7.50
2023-02-19T14:16:38.903Z,7.03
2023-02-19T14:19:37.666Z,7.40
2023-02-19T14:22:44.679Z,6.85
2023-02-19T14:25:34.901Z,9.57
2023-02-19T14:28:28.384Z,13.98
2023-02-19T14:31:02.138Z,14.10
2023-02-19T14:33:33.872Z,7.47
2023-02-19T14:36:20.017Z,7.45
2023-02-19T14:39:05.311Z,8.10
2023-02-19T14:41:39.782Z,8.05
2023-02-19T14:44:26.068Z,8.43
2023-02-19T14:47:08.083Z,8.45
2023-02-19T14:49:48.776Z,8.38
2023-02-19T14:52:27.127Z,9.13
2023-02-19T14:55:02.504Z,8.40
2023-02-19T14:57:34.741Z,8.70
2023-02-19T15:00:21.255Z,9.02
2023-02-19T15:02:52.418Z,9.45
2023-02-19T15:05:28.296Z,9.68
2023-02-19T15:08:03.449Z,11.05
2023-02-19T15:10:34.867Z,9.93
2023-02-19T15:13:07.457Z,10.40
2023-02-19T15:15:41.197Z,9.30
2023-02-19T15:18:19.004Z,10.30
2023-02-19T15:20:48.800Z,9.73
2023-02-19T15:23:27.442Z,9.38
2023-02-19T15:25:56.373Z,9.00
2023-02-19T15:28:28.350Z,8.50
2023-02-19T15:31:00.270Z,7.65
2023-02-19T15:33:29.659Z,7.80
2023-02-19T15:36:02.293Z,6.32
2023-02-19T15:38:31.690Z,8.25
2023-02-19T15:41:01.127Z,7.15
2023-02-19T15:43:50.972Z,7.32
2023-02-19T15:46:23.922Z,6.72
2023-02-19T15:49:15.733Z,6.80
2023-02-19T15:52:02.335Z,6.03
2023-02-19T15:54:53.915Z,7.22
2023-02-19T15:57:32.288Z,7.22
2023-02-19T16:00:20.548Z,6.35
2023-02-19T16:02:50.973Z,6.30
2023-02-19T16:05:31.259Z,6.40
2023-02-19T16:08:10.461Z,6.60
2023-02-19T16:10:40.157Z,6.97
2023-02-19T16:13:09.609Z,6.80
2023-02-19T16:15:40.329Z,7.53
2023-02-19T16:18:16.405Z,6.28
2023-02-19T16:20:49.434Z,6.85
2023-02-19T16:23:23.094Z,6.72
2023-02-19T16:26:02.844Z,6.63
2023-02-19T16:28:40.000Z,6.80
2023-02-19T16:31:11.924Z,7.47
2023-02-19T16:33:47.503Z,6.93
2023-02-19T16:36:37.263Z,7.30
2023-02-19T16:39:09.276Z,7.15
2023-02-19T16:41:50.580Z,7.65
2023-02-19T16:44:36.686Z,7.25
2023-02-19T16:47:30.979Z,7.25
2023-02-19T16:50:02.062Z,7.90
2023-02-19T16:52:31.255Z,8.32
2023-02-19T16:55:00.183Z,7.53
2023-02-19T16:57:29.136Z,7.38
2023-02-19T16:59:58.024Z,8.02
2023-02-19T17:02:27.281Z,8.52
2023-02-19T17:04:56.789Z,8.57
2023-02-19T17:07:27.104Z,8.13
2023-02-19T17:09:55.991Z,8.52
2023-02-19T17:12:25.209Z,8.88
2023-02-19T17:14:54.103Z,8.45
2023-02-19T17:17:23.025Z,8.52
2023-02-19T17:19:52.050Z,8.25
2023-02-19T17:22:20.964Z,7.70
2023-02-19T17:24:50.456Z,8.13
2023-02-19T17:27:19.371Z,9.18
2023-02-19T17:29:48.263Z,8.88
2023-02-19T17:32:17.240Z,7.78
2023-02-19T17:34:50.477Z,11.32
2023-02-19T17:37:19.432Z,12.30
2023-02-19T17:39:48.341Z,8.95
2023-02-19T17:42:17.237Z,8.90
2023-02-19T17:44:47.812Z,8.75
2023-02-19T17:47:16.757Z,8.93
2023-02-19T17:49:45.616Z,9.68
2023-02-19T17:52:18.737Z,9.25
2023-02-19T17:54:48.675Z,9.40
2023-02-19T17:57:17.574Z,8.80
2023-02-19T17:59:46.422Z,9.50
2023-02-19T18:02:15.337Z,9.38
2023-02-19T18:04:44.203Z,9.10
2023-02-19T18:07:13.101Z,8.55
2023-02-19T18:09:42.273Z,9.38
2023-02-19T18:12:11.410Z,9.95
2023-02-19T18:14:40.297Z,9.55
2023-02-19T18:17:09.226Z,10.02
2023-02-19T18:19:38.131Z,8.98
2023-02-19T18:22:07.033Z,8.80
2023-02-19T18:24:35.937Z,9.77
2023-02-19T18:27:04.956Z,10.23
2023-02-19T18:29:35.122Z,10.32
2023-02-19T18:32:04.208Z,9.88
2023-02-19T18:34:33.206Z,10.43
2023-02-19T18:37:02.263Z,10.38
2023-02-19T18:39:32.251Z,11.27
2023-02-19T18:42:02.180Z,10.10
2023-02-19T18:44:31.092Z,11.30
2023-02-19T18:46:59.937Z,10.05
2023-02-19T18:49:30.695Z,10.05
2023-02-19T18:52:03.129Z,10.02
2023-02-19T18:54:32.919Z,10.23
2023-02-19T18:57:02.912Z,9.88
2023-02-19T18:59:32.620Z,10.52
2023-02-19T19:02:01.992Z,10.20
2023-02-19T19:04:30.938Z,10.55
2023-02-19T19:06:59.901Z,10.32
2023-02-19T19:09:28.780Z,10.10
2023-02-19T19:11:57.746Z,10.00
2023-02-19T19:14:26.672Z,10.85
2023-02-19T19:16:55.560Z,15.48
2023-02-19T19:19:24.487Z,10.32
2023-02-19T19:21:54.899Z,10.18
2023-02-19T19:24:26.141Z,10.93
2023-02-19T19:26:55.346Z,10.82
2023-02-19T19:29:24.715Z,10.50
2023-02-19T19:31:53.698Z,10.48
2023-02-19T19:34:22.967Z,11.57
2023-02-19T19:36:51.836Z,10.43
2023-02-19T19:39:20.763Z,10.98
2023-02-19T19:41:55.911Z,11.30
2023-02-19T19:44:25.361Z,11.45
2023-02-19T19:46:56.476Z,10.98
2023-02-19T19:49:25.545Z,11.32
2023-02-19T19:51:55.141Z,10.70
2023-02-19T19:54:25.494Z,10.57
2023-02-19T19:56:54.464Z,10.95
2023-02-19T19:59:24.190Z,10.80
2023-02-19T20:01:58.907Z,11.25
2023-02-19T20:04:27.914Z,11.68
2023-02-19T20:06:56.909Z,10.90
2023-02-19T20:09:26.701Z,11.75
2023-02-19T20:11:55.710Z,11.73
2023-02-19T20:14:25.950Z,10.43
2023-02-19T20:16:56.255Z,11.98
2023-02-19T20:19:25.713Z,11.30
2023-02-19T20:21:55.421Z,11.68
2023-02-19T20:24:27.332Z,12.40
2023-02-19T20:27:01.186Z,12.52
2023-02-19T20:29:32.376Z,11.50
2023-02-19T20:32:03.589Z,11.55
2023-02-19T20:34:32.930Z,11.93
2023-02-19T20:37:01.911Z,12.18
2023-02-19T20:39:31.005Z,12.00
2023-02-19T20:42:00.880Z,11.80
2023-02-19T20:44:30.971Z,11.50
2023-02-19T20:47:01.460Z,11.88
2023-02-19T20:49:32.215Z,12.20
2023-02-19T20:52:06.184Z,13.30
2023-02-19T20:54:36.793Z,12.35
2023-02-19T20:57:07.258Z,12.18
2023-02-19T20:59:37.032Z,12.63
2023-02-19T21:02:09.178Z,12.65
2023-02-19T21:04:40.697Z,12.93
2023-02-19T21:07:09.596Z,13.35
2023-02-19T21:09:38.468Z,12.00
2023-02-19T21:12:07.745Z,12.82
2023-02-19T21:14:36.664Z,11.90
2023-02-19T21:17:06.730Z,13.15
2023-02-19T21:19:35.693Z,12.55
2023-02-19T21:22:04.608Z,12.93
2023-02-19T21:24:33.923Z,12.32
2023-02-19T21:27:02.924Z,12.90
2023-02-19T21:29:31.807Z,12.60
2023-02-19T21:32:00.848Z,13.40
2023-02-19T21:34:32.462Z,12.48
2023-02-19T21:37:01.394Z,13.30
2023-02-19T21:39:32.306Z,13.57
2023-02-19T21:42:01.393Z,15.15
2023-02-19T21:44:30.274Z,13.93
2023-02-19T21:46:59.294Z,12.75
2023-02-19T21:49:28.495Z,12.10
2023-02-19T21:51:57.394Z,13.27
2023-02-19T21:54:27.166Z,14.23
2023-02-19T21:56:56.653Z,15.98
2023-02-19T21:59:25.806Z,22.48
2023-02-19T22:01:54.786Z,14.10
2023-02-19T22:04:25.637Z,13.73
2023-02-19T22:06:57.697Z,14.18
2023-02-19T22:09:26.666Z,13.52
2023-02-19T22:11:55.581Z,13.45
2023-02-19T22:14:24.803Z,14.15
2023-02-19T22:16:53.712Z,13.55
2023-02-19T22:19:22.763Z,13.15
2023-02-19T22:21:51.724Z,14.93
2023-02-19T22:24:22.959Z,14.18
2023-02-19T22:26:56.782Z,14.95
2023-02-19T22:29:26.125Z,15.90
2023-02-19T22:31:55.389Z,15.45
2023-02-19T22:34:24.747Z,15.20
2023-02-19T22:36:53.809Z,24.75
2023-02-19T22:39:26.871Z,16.10
2023-02-19T22:41:56.046Z,15.35
2023-02-19T22:44:25.010Z,15.90
2023-02-19T22:46:56.585Z,26.48
2023-02-19T22:49:26.063Z,16.23
2023-02-19T22:52:11.100Z,24.48
2023-02-19T22:54:40.699Z,15.43
2023-02-19T22:57:09.653Z,16.00
2023-02-19T22:59:38.626Z,15.23
2023-02-19T23:02:07.765Z,24.08
2023-02-19T23:04:36.714Z,20.58
2023-02-19T23:07:07.254Z,20.80
2023-02-19T23:09:36.405Z,15.38
2023-02-19T23:12:10.551Z,15.98
2023-02-19T23:17:08.390Z,14.65
2023-02-19T23:19:38.859Z,15.23
2023-02-19T23:22:07.889Z,15.73
2023-02-19T23:24:36.753Z,15.30
2023-02-19T23:27:05.780Z,19.50
2023-02-19T23:29:35.052Z,15.20
2023-02-19T23:32:04.015Z,16.15
2023-02-19T23:34:33.037Z,16.83
2023-02-19T23:37:03.405Z,18.33
2023-02-19T23:39:32.492Z,18.17
2023-02-19T23:42:01.411Z,23.20
2023-02-19T23:44:30.385Z,24.65
2023-02-19T23:46:59.359Z,22.92
2023-02-19T23:49:28.242Z,23.98
2023-02-19T23:51:57.088Z,25.63
2023-02-19T23:54:26.027Z,22.02
2023-02-19T23:56:55.103Z,23.35
2023-02-19T23:59:24.052Z,24.13
